Time;durP1;ratioP1;P1;durP2;ratioP2;P2;SDS_P1;SDS_P2;PMS_P1;PMS_P2;Temp;Humidity;BMP_temperature;BMP_pressure;BME280_temperature;BME280_humidity;BME280_pressure;Samples;Min_cycle;Max_cycle;Signal;HPM_P1;HPM_P2
2022/02/20 00:00:37;;;;;;;5.50;2.70;;;;;;;3.40;85.88;97096.41;5061838;28;20043;-61
2022/02/20 00:03:03;;;;;;;3.88;2.42;;;;;;;3.26;86.20;97107.13;5061927;28;20043;-61
2022/02/20 00:05:29;;;;;;;3.88;2.85;;;;;;;3.23;86.15;97093.59;5040785;28;20222;-60
2022/02/20 00:07:55;;;;;;;4.03;2.72;;;;;;;3.37;86.01;97095.69;5048724;28;20044;-61
2022/02/20 00:10:20;;;;;;;4.10;2.40;;;;;;;3.30;85.42;97092.50;5061764;28;20131;-61
2022/02/20 00:12:46;;;;;;;5.68;2.38;;;;;;;3.30;86.22;97094.25;5062005;28;20017;-61
2022/02/20 00:15:12;;;;;;;3.78;2.53;;;;;;;3.35;85.38;97087.22;5047384;28;20380;-62
2022/02/20 00:17:38;;;;;;;3.47;2.00;;;;;;;3.36;85.60;97089.72;5062107;28;20292;-62
2022/02/20 00:20:04;;;;;;;4.82;2.60;;;;;;;3.35;86.22;97082.09;5060687;28;20024;-60
2022/02/20 00:22:30;;;;;;;6.25;2.40;;;;;;;3.37;85.54;97096.53;5062241;28;20040;-61
2022/02/20 00:25:00;;;;;;;5.10;2.42;;;;;;;3.21;85.82;97088.53;5061642;28;20033;-60
2022/02/20 00:27:27;;;;;;;5.75;2.65;;;;;;;3.26;85.46;97081.56;5061970;28;20525;-61
2022/02/20 00:29:53;;;;;;;4.53;2.63;;;;;;;3.19;86.23;97084.38;5061969;28;20013;-60
2022/02/20 00:32:19;;;;;;;3.47;2.50;;;;;;;3.34;86.13;97086.41;5061833;28;20044;-61
2022/02/20 00:34:44;;;;;;;3.78;2.20;;;;;;;3.36;85.26;97078.66;5061849;28;20036;-61
2022/02/20 00:37:10;;;;;;;4.60;2.85;;;;;;;3.24;86.23;97074.81;5061748;28;20025;-61
2022/02/20 00:39:36;;;;;;;4.80;2.58;;;;;;;3.14;86.02;97079.41;5062000;28;20087;-60
2022/02/20 00:42:01;;;;;;;2.33;2.13;;;;;;;3.27;86.46;97075.53;5064364;28;20093;-61
2022/02/20 00:44:27;;;;;;;5.30;2.50;;;;;;;3.34;86.48;97070.22;5065607;28;20027;-61
2022/02/20 00:46:52;;;;;;;4.10;1.98;;;;;;;3.35;86.12;97066.75;5065736;28;20031;-60
2022/02/20 00:49:18;;;;;;;3.67;2.33;;;;;;;3.07;87.01;97073.66;5065529;28;20187;-60
2022/02/20 00:51:44;;;;;;;3.33;2.58;;;;;;;3.21;87.09;97065.53;5065476;28;20028;-60
2022/02/20 00:54:09;;;;;;;3.22;2.30;;;;;;;3.23;86.56;97063.75;5065522;28;20218;-61
2022/02/20 00:56:36;;;;;;;2.75;2.25;;;;;;;3.28;86.71;97056.75;5065507;28;20032;-61
2022/02/20 00:59:03;;;;;;;3.22;2.30;;;;;;;3.35;86.13;97062.50;5065318;28;20037;-61
2022/02/20 01:01:28;;;;;;;4.00;2.35;;;;;;;2.95;86.77;97022.97;5064931;28;20024;-61
2022/02/20 01:03:54;;;;;;;3.00;2.03;;;;;;;3.16;87.06;97064.84;5065153;28;20383;-60
2022/02/20 01:06:21;;;;;;;4.55;2.30;;;;;;;3.14;87.51;97063.25;5064360;28;20029;-61
2022/02/20 01:08:47;;;;;;;4.65;2.30;;;;;;;3.13;87.31;97064.13;5050926;28;20094;-60
2022/02/20 01:11:12;;;;;;;3.40;2.60;;;;;;;3.19;87.19;97059.66;5061294;28;20021;-60
2022/02/20 01:13:38;;;;;;;2.70;2.20;;;;;;;3.08;86.67;97051.50;5064883;28;20096;-61
2022/02/20 01:16:04;;;;;;;2.72;2.13;;;;;;;3.11;87.01;97054.78;5065058;28;20104;-60
2022/02/20 01:18:30;;;;;;;3.95;2.10;;;;;;;3.06;87.06;97060.94;5065144;28;20033;-61
2022/02/20 01:20:55;;;;;;;3.20;1.98;;;;;;;3.05;86.85;97059.25;5065101;28;20025;-60
2022/02/20 01:23:21;;;;;;;4.93;2.13;;;;;;;3.05;86.99;97065.22;5065048;28;20056;-60
2022/02/20 01:25:47;;;;;;;2.53;2.00;;;;;;;3.07;86.83;97048.09;5065001;28;20025;-60
2022/02/20 01:28:12;;;;;;;3.25;1.92;;;;;;;3.11;87.23;97052.22;5065023;28;20025;-61
2022/02/20 01:30:38;;;;;;;1.75;1.60;;;;;;;3.10;86.76;97057.38;5064654;28;20094;-61
2022/02/20 01:33:03;;;;;;;2.08;1.70;;;;;;;2.95;87.12;97061.31;5064932;28;20035;-60
2022/02/20 01:35:29;;;;;;;2.00;1.58;;;;;;;2.99;86.96;97069.69;5064732;28;20025;-61
2022/02/20 01:37:55;;;;;;;1.38;1.27;;;;;;;3.10;86.70;97065.06;5064447;28;20033;-60
2022/02/20 01:40:21;;;;;;;1.77;1.67;;;;;;;3.14;86.83;97061.50;5063769;28;20045;-60
2022/02/20 01:42:47;;;;;;;1.63;1.52;;;;;;;3.19;86.27;97058.78;5064763;28;20044;-61
2022/02/20 01:45:14;;;;;;;2.05;1.70;;;;;;;3.16;86.10;97069.94;5064508;28;20322;-60
2022/02/20 01:47:40;;;;;;;1.98;1.63;;;;;;;3.09;86.82;97060.81;5064626;28;20056;-60
2022/02/20 01:50:07;;;;;;;2.85;1.40;;;;;;;3.16;85.99;97066.56;5062555;28;20037;-60
2022/02/20 01:52:33;;;;;;;3.28;1.33;;;;;;;3.03;86.53;97077.22;5062844;28;20356;-60
2022/02/20 01:54:59;;;;;;;1.30;1.20;;;;;;;3.11;86.92;97074.41;5064373;28;20051;-60
2022/02/20 01:57:24;;;;;;;2.08;1.20;;;;;;;3.20;86.06;97078.38;5073181;28;20030;-60
2022/02/20 01:59:51;;;;;;;1.60;1.50;;;;;;;3.11;86.75;97082.91;5066761;28;20041;-60
2022/02/20 02:02:19;;;;;;;1.98;1.30;;;;;;;3.10;86.56;97080.41;5064071;28;20021;-60
2022/02/20 02:04:48;;;;;;;1.10;0.95;;;;;;;3.00;86.77;97073.94;5064301;28;20075;-60
2022/02/20 02:07:14;;;;;;;2.03;1.27;;;;;;;2.93;87.01;97086.91;5063991;28;20046;-60
2022/02/20 02:09:39;;;;;;;1.30;1.20;;;;;;;2.89;87.42;97082.78;5064145;28;20056;-60
2022/02/20 02:12:05;;;;;;;1.83;1.10;;;;;;;2.89;87.37;97090.47;5064036;28;20332;-60
2022/02/20 02:14:30;;;;;;;1.52;1.30;;;;;;;2.92;87.45;97080.13;5063848;28;20096;-60
2022/02/20 02:16:57;;;;;;;2.42;1.30;;;;;;;2.89;88.03;97085.34;5063003;28;20029;-60
2022/02/20 02:19:23;;;;;;;1.35;1.20;;;;;;;2.87;88.06;97091.41;5064049;28;20052;-59
2022/02/20 02:21:48;;;;;;;1.38;1.27;;;;;;;2.70;88.50;97087.66;5064029;28;20036;-60
2022/02/20 02:24:15;;;;;;;1.38;1.20;;;;;;;2.79;87.90;97083.97;5063894;28;20025;-60
2022/02/20 02:26:40;;;;;;;1.90;1.27;;;;;;;2.66;88.01;97077.59;5062497;28;20031;-59
2022/02/20 02:29:06;;;;;;;1.45;1.25;;;;;;;2.81;88.36;97086.47;5063759;28;20017;-60
2022/02/20 02:31:32;;;;;;;1.40;1.30;;;;;;;2.82;87.74;97089.00;5063742;28;20033;-59
2022/02/20 02:34:00;;;;;;;1.42;1.33;;;;;;;2.72;88.20;97092.72;5063633;28;20091;-59
2022/02/20 02:36:25;;;;;;;1.38;1.27;;;;;;;2.78;88.34;97084.00;5063849;28;20049;-59
2022/02/20 02:38:51;;;;;;;1.45;1.30;;;;;;;2.74;88.48;97085.84;5063550;28;20028;-61
2022/02/20 02:41:17;;;;;;;2.03;1.50;;;;;;;2.62;88.51;97078.56;5063624;28;20202;-59
2022/02/20 02:43:43;;;;;;;1.63;1.13;;;;;;;2.74;87.92;97086.66;5062121;28;20071;-59
2022/02/20 02:46:08;;;;;;;2.28;1.60;;;;;;;2.84;88.01;97096.63;5062099;28;20096;-59
2022/02/20 02:48:43;;;;;;;1.55;1.33;;;;;;;2.85;87.73;97093.16;5062184;28;20322;-60
2022/02/20 02:51:08;;;;;;;1.50;1.40;;;;;;;2.67;88.04;97094.59;5063206;28;20032;-59
2022/02/20 02:53:34;;;;;;;1.60;1.50;;;;;;;2.75;87.90;97096.03;5063063;28;20028;-59
2022/02/20 02:55:59;;;;;;;1.75;1.58;;;;;;;2.71;88.24;97091.06;5063118;28;20032;-58
2022/02/20 02:58:27;;;;;;;1.67;1.58;;;;;;;2.78;88.14;97105.31;5063089;28;20059;-59
2022/02/20 03:00:54;;;;;;;1.95;1.70;;;;;;;2.82;88.37;97104.34;5062885;28;20234;-59
2022/02/20 03:03:20;;;;;;;1.65;1.55;;;;;;;2.77;88.06;97106.19;5062655;28;20049;-59
2022/02/20 03:05:45;;;;;;;2.63;1.80;;;;;;;2.77;88.29;97116.41;5062376;28;20025;-59
2022/02/20 03:08:11;;;;;;;1.80;1.50;;;;;;;2.67;88.32;97100.53;5058244;28;20021;-59
2022/02/20 03:10:37;;;;;;;1.60;1.48;;;;;;;2.46;88.42;97094.38;5062925;28;20123;-59
2022/02/20 03:13:03;;;;;;;1.42;1.33;;;;;;;2.55;88.98;97111.13;5062833;28;20106;-59
2022/02/20 03:15:29;;;;;;;1.73;1.60;;;;;;;2.50;88.97;97090.84;5062510;28;20024;-59
2022/02/20 03:17:55;;;;;;;1.63;1.48;;;;;;;2.67;88.92;97107.38;5062810;28;20091;-58
2022/02/20 03:20:20;;;;;;;1.92;1.50;;;;;;;2.55;89.12;97106.88;5062781;28;20024;-59
2022/02/20 03:22:46;;;;;;;1.80;1.67;;;;;;;2.47;89.16;97113.09;5062751;28;20245;-59
2022/02/20 03:25:12;;;;;;;2.13;1.75;;;;;;;2.46;89.50;97102.03;5062413;28;20036;-59
2022/02/20 03:27:37;;;;;;;1.92;1.70;;;;;;;2.68;89.50;97109.03;5062360;28;20104;-58
2022/02/20 03:30:04;;;;;;;3.35;1.52;;;;;;;2.67;89.25;97112.47;5062715;28;20024;-59
2022/02/20 03:32:30;;;;;;;3.80;1.67;;;;;;;2.75;88.87;97123.28;5061610;28;20067;-59
2022/02/20 03:34:55;;;;;;;2.53;1.60;;;;;;;2.57;89.54;97122.97;5061457;28;20050;-60
2022/02/20 03:37:21;;;;;;;3.13;1.55;;;;;;;2.44;89.18;97120.84;5062289;28;20078;-59
2022/02/20 03:39:46;;;;;;;1.80;1.65;;;;;;;2.53;89.59;97126.50;5061276;28;20017;-59
2022/02/20 03:42:12;;;;;;;1.55;1.45;;;;;;;2.59;89.27;97131.44;5062328;28;20032;-59
2022/02/20 03:44:38;;;;;;;1.63;1.30;;;;;;;2.58;88.53;97128.94;5061140;28;20349;-59
2022/02/20 03:47:04;;;;;;;2.42;1.65;;;;;;;2.68;88.97;97129.47;5062278;28;20029;-60
2022/02/20 03:49:29;;;;;;;1.60;1.50;;;;;;;2.77;88.95;97139.41;5060991;28;20027;-59
2022/02/20 03:51:55;;;;;;;1.63;1.52;;;;;;;2.72;88.75;97133.59;5062303;28;20063;-59
2022/02/20 03:54:21;;;;;;;2.13;1.92;;;;;;;2.77;88.88;97141.97;5061760;28;20029;-58
2022/02/20 03:56:46;;;;;;;1.92;1.75;;;;;;;2.77;88.49;97141.97;5062323;28;20056;-58
2022/02/20 03:59:12;;;;;;;1.63;1.30;;;;;;;2.70;87.82;97141.31;5062687;28;20256;-59
2022/02/20 04:01:37;;;;;;;2.38;1.27;;;;;;;2.76;88.25;97147.94;5062079;28;20383;-59
2022/02/20 04:04:03;;;;;;;1.85;1.55;;;;;;;2.65;88.22;97144.91;5062170;28;20037;-59
2022/02/20 04:06:29;;;;;;;1.70;1.60;;;;;;;2.77;88.69;97152.19;5061992;28;20037;-58
2022/02/20 04:08:54;;;;;;;1.83;1.55;;;;;;;2.68;89.17;97157.56;5061173;28;20032;-58
2022/02/20 04:11:20;;;;;;;2.28;1.50;;;;;;;2.78;88.75;97145.34;5061860;28;20032;-58
2022/02/20 04:13:45;;;;;;;3.53;1.83;;;;;;;2.75;88.74;97154.78;5061822;28;20108;-58
2022/02/20 04:16:11;;;;;;;2.90;2.05;;;;;;;2.70;88.50;97159.19;5064706;28;20195;-58
2022/02/20 04:18:37;;;;;;;1.98;1.45;;;;;;;2.73;88.17;97160.84;5068714;28;20033;-58
2022/02/20 04:21:03;;;;;;;1.38;1.27;;;;;;;2.67;88.34;97155.91;5068749;28;20033;-58
2022/02/20 04:23:30;;;;;;;1.92;1.30;;;;;;;2.72;88.71;97162.56;5068795;28;20063;-59
2022/02/20 04:26:01;;;;;;;1.60;1.50;;;;;;;2.55;88.25;97142.63;5067229;28;20329;-59
2022/02/20 04:28:28;;;;;;;1.85;1.63;;;;;;;2.72;88.17;97172.78;5068447;28;20105;-59
2022/02/20 04:30:54;;;;;;;1.70;1.40;;;;;;;2.72;88.78;97174.47;5068457;28;20325;-60
2022/02/20 04:33:20;;;;;;;1.60;1.50;;;;;;;2.78;88.14;97169.19;5068504;28;20036;-59
2022/02/20 04:35:45;;;;;;;2.20;2.00;;;;;;;2.78;87.87;97179.44;5068566;28;20225;-59
2022/02/20 04:38:11;;;;;;;1.98;1.77;;;;;;;2.85;88.02;97183.47;5068388;28;20036;-59
2022/02/20 04:40:36;;;;;;;1.63;1.52;;;;;;;2.77;87.67;97190.53;5068267;28;20040;-60
2022/02/20 04:43:02;;;;;;;1.95;1.33;;;;;;;2.81;87.91;97181.88;5067441;28;20029;-59
2022/02/20 04:45:27;;;;;;;2.03;1.50;;;;;;;2.85;87.85;97196.25;5068804;28;20039;-59
2022/02/20 04:47:53;;;;;;;1.42;1.33;;;;;;;2.75;87.98;97194.81;5067483;28;20033;-59
2022/02/20 04:50:19;;;;;;;1.60;1.48;;;;;;;2.88;88.25;97196.13;5068228;28;20329;-60
2022/02/20 04:52:44;;;;;;;2.00;1.67;;;;;;;2.89;87.82;97204.63;5068517;28;20029;-59
2022/02/20 04:55:10;;;;;;;1.50;1.40;;;;;;;2.94;87.71;97203.59;5068283;28;20036;-60
2022/02/20 04:57:37;;;;;;;2.15;1.60;;;;;;;2.78;87.75;97199.88;5068265;28;20032;-58
2022/02/20 05:00:05;;;;;;;5.88;3.08;;;;;;;2.29;87.73;97112.75;5068356;28;20033;-61
2022/02/20 05:02:30;;;;;;;1.27;1.17;;;;;;;2.86;87.65;97212.41;5068156;28;20074;-59
2022/02/20 05:04:56;;;;;;;1.23;1.20;;;;;;;2.82;87.42;97221.91;5068423;28;20321;-59
2022/02/20 05:07:21;;;;;;;2.65;1.60;;;;;;;2.59;87.78;97213.19;5067395;28;20043;-59
2022/02/20 05:09:47;;;;;;;2.08;1.50;;;;;;;2.69;87.69;97229.06;5068516;28;20020;-59
2022/02/20 05:12:13;;;;;;;1.60;1.50;;;;;;;2.72;87.28;97216.22;5068304;28;20314;-58
2022/02/20 05:14:38;;;;;;;1.50;1.40;;;;;;;2.85;87.46;97224.34;5067931;28;20036;-58
2022/02/20 05:17:04;;;;;;;1.75;1.42;;;;;;;2.79;87.66;97221.13;5068047;28;20028;-58
2022/02/20 05:19:29;;;;;;;1.40;1.30;;;;;;;2.82;86.79;97239.78;5068256;28;20028;-59
2022/02/20 05:21:55;;;;;;;1.40;1.27;;;;;;;2.97;87.14;97235.09;5068151;28;20376;-59
2022/02/20 05:24:21;;;;;;;2.47;1.52;;;;;;;2.98;86.89;97247.81;5068103;28;20024;-58
2022/02/20 05:26:47;;;;;;;1.75;1.40;;;;;;;2.90;87.53;97245.47;5066233;28;20033;-59
2022/02/20 05:29:12;;;;;;;1.70;1.40;;;;;;;2.90;87.36;97242.91;5064435;28;20098;-59
2022/02/20 05:31:38;;;;;;;1.42;1.23;;;;;;;3.00;87.59;97250.31;5064759;28;20029;-60
2022/02/20 05:34:03;;;;;;;1.50;1.40;;;;;;;3.00;87.21;97246.03;5064998;28;20028;-60
2022/02/20 05:36:29;;;;;;;3.40;1.35;;;;;;;3.01;86.51;97252.00;5064435;28;20032;-58
2022/02/20 05:38:55;;;;;;;1.42;1.10;;;;;;;2.92;87.14;97264.19;5064705;28;20342;-58
2022/02/20 05:41:21;;;;;;;2.55;1.27;;;;;;;2.95;87.27;97263.25;5064339;28;20048;-59
2022/02/20 05:43:47;;;;;;;1.85;1.75;;;;;;;2.81;87.20;97255.13;5060873;28;20032;-58
2022/02/20 05:46:12;;;;;;;1.95;1.40;;;;;;;2.81;87.17;97270.47;5064650;28;20268;-59
2022/02/20 05:48:38;;;;;;;1.40;1.27;;;;;;;2.78;87.67;97281.66;5064494;28;20051;-59
2022/02/20 05:51:04;;;;;;;1.30;1.20;;;;;;;2.80;87.72;97279.88;5064182;28;20025;-60
2022/02/20 05:53:29;;;;;;;1.45;1.30;;;;;;;2.80;87.35;97286.72;5064198;28;20028;-60
2022/02/20 05:55:55;;;;;;;1.50;1.40;;;;;;;2.90;87.70;97290.66;5064298;28;20021;-61
2022/02/20 05:58:21;;;;;;;1.10;1.10;;;;;;;2.90;87.54;97304.28;5064123;28;20047;-60
2022/02/20 06:00:46;;;;;;;3.22;1.30;;;;;;;3.00;87.58;97302.28;5064196;28;20028;-59
2022/02/20 06:03:12;;;;;;;2.40;1.65;;;;;;;2.78;87.79;97291.00;5062434;28;20098;-60
2022/02/20 06:05:37;;;;;;;1.50;1.40;;;;;;;3.02;87.71;97304.78;5064260;28;20268;-59
2022/02/20 06:08:03;;;;;;;1.35;1.25;;;;;;;3.03;87.12;97307.31;5056720;28;20049;-60
2022/02/20 06:10:29;;;;;;;1.65;1.30;;;;;;;2.93;87.63;97306.72;5057777;28;20032;-59
2022/02/20 06:12:55;;;;;;;1.90;1.50;;;;;;;2.94;87.59;97315.25;5063926;28;20017;-59
2022/02/20 06:15:20;;;;;;;1.58;1.20;;;;;;;2.74;87.28;97314.09;5056525;28;20031;-60
2022/02/20 06:17:46;;;;;;;4.05;1.77;;;;;;;2.93;87.69;97327.19;5062898;28;20039;-60
2022/02/20 06:20:12;;;;;;;2.53;1.52;;;;;;;2.94;87.70;97328.03;5063774;28;20067;-59
2022/02/20 06:22:37;;;;;;;2.17;1.58;;;;;;;2.88;87.31;97336.72;5063941;28;20032;-60
2022/02/20 06:25:04;;;;;;;2.85;1.45;;;;;;;3.04;87.22;97336.28;5063816;28;20040;-59
2022/02/20 06:27:30;;;;;;;2.08;1.63;;;;;;;3.11;87.45;97348.00;5063746;28;20296;-60
2022/02/20 06:29:56;;;;;;;1.55;1.45;;;;;;;2.99;86.62;97338.13;5062622;28;20314;-59
2022/02/20 06:32:21;;;;;;;2.00;1.70;;;;;;;3.07;87.57;97354.09;5063615;28;20036;-59
2022/02/20 06:34:47;;;;;;;2.38;1.60;;;;;;;3.02;87.54;97363.59;5063528;28;20071;-60
2022/02/20 06:37:12;;;;;;;3.85;1.80;;;;;;;3.11;86.68;97363.34;5063315;28;20025;-59
2022/02/20 06:39:44;;;;;;;1.70;1.60;;;;;;;3.12;87.32;97375.22;5063415;28;20020;-59
2022/02/20 06:42:15;;;;;;;1.77;1.50;;;;;;;2.76;87.22;97337.91;5063715;28;20151;-59
2022/02/20 06:44:41;;;;;;;1.83;1.60;;;;;;;3.22;87.22;97397.13;5062337;28;20032;-59
2022/02/20 06:47:07;;;;;;;3.58;1.70;;;;;;;3.12;86.35;97390.56;5061943;28;20033;-61
2022/02/20 06:49:33;;;;;;;2.70;1.88;;;;;;;3.11;87.06;97402.53;5060748;28;20035;-61
2022/02/20 06:51:59;;;;;;;3.58;1.63;;;;;;;3.06;86.65;97416.31;5062997;28;20091;-62
2022/02/20 06:54:27;;;;;;;2.28;1.80;;;;;;;3.17;87.07;97414.31;5060650;28;20048;-62
2022/02/20 06:56:56;;;;;;;2.90;1.80;;;;;;;3.20;86.79;97418.50;5052195;28;20324;-61
2022/02/20 06:59:26;;;;;;;3.47;1.70;;;;;;;3.15;87.05;97423.75;5057556;28;20242;-58
2022/02/20 07:01:51;;;;;;;3.28;2.10;;;;;;;3.11;86.69;97430.66;5059627;28;20322;-58
2022/02/20 07:04:17;;;;;;;3.70;1.90;;;;;;;3.19;86.58;97430.47;5053609;28;20049;-59
2022/02/20 07:06:44;;;;;;;5.22;2.17;;;;;;;3.27;87.03;97456.63;5052956;28;20032;-57
2022/02/20 07:09:11;;;;;;;3.92;2.13;;;;;;;3.21;86.74;97461.09;5054178;28;20024;-57
2022/02/20 07:11:37;;;;;;;3.08;1.70;;;;;;;3.30;86.68;97460.00;5062331;28;20096;-56
2022/02/20 07:14:03;;;;;;;2.90;1.70;;;;;;;3.24;86.12;97466.94;5051928;28;20029;-59
2022/02/20 07:16:29;;;;;;;2.15;1.48;;;;;;;3.26;86.21;97470.31;5061046;28;20306;-61
2022/02/20 07:18:55;;;;;;;2.65;1.40;;;;;;;3.27;85.40;97489.88;5061517;28;20025;-60
2022/02/20 07:21:22;;;;;;;2.97;1.38;;;;;;;3.33;85.07;97495.72;5061875;28;20029;-59
2022/02/20 07:23:47;;;;;;;1.73;1.40;;;;;;;3.39;85.45;97501.50;5062113;28;20036;-61
2022/02/20 07:26:13;;;;;;;3.08;1.70;;;;;;;3.38;85.31;97504.13;5060960;28;20056;-61
2022/02/20 07:28:38;;;;;;;1.65;1.55;;;;;;;3.45;84.66;97509.00;5061973;28;20372;-60
2022/02/20 07:31:04;;;;;;;2.67;1.58;;;;;;;3.50;84.25;97515.72;5062021;28;20323;-60
2022/02/20 07:33:29;;;;;;;1.85;1.60;;;;;;;3.45;82.92;97519.25;5062036;28;20046;-59
2022/02/20 07:35:55;;;;;;;1.88;1.40;;;;;;;3.44;82.53;97517.56;5062465;28;20032;-60
2022/02/20 07:38:21;;;;;;;3.15;1.92;;;;;;;3.45;82.22;97529.47;5061926;28;20048;-59
2022/02/20 07:40:46;;;;;;;2.10;1.67;;;;;;;3.43;82.13;97531.25;5060238;28;20029;-60
2022/02/20 07:43:12;;;;;;;2.75;1.55;;;;;;;3.48;81.55;97537.94;5062133;28;20237;-60
2022/02/20 07:45:37;;;;;;;1.27;1.17;;;;;;;3.59;81.00;97536.78;5061863;28;20218;-60
2022/02/20 07:48:03;;;;;;;5.50;1.95;;;;;;;3.63;80.58;97533.25;5061605;28;20024;-60
2022/02/20 07:50:31;;;;;;;3.10;1.77;;;;;;;3.41;79.71;97473.31;5061157;28;20024;-61
2022/02/20 07:52:58;;;;;;;6.47;1.92;;;;;;;3.71;79.29;97557.78;5061768;28;20079;-61
2022/02/20 07:55:24;;;;;;;4.60;1.83;;;;;;;3.81;80.23;97556.63;5062114;28;20028;-61
2022/02/20 07:57:50;;;;;;;2.97;1.67;;;;;;;3.85;79.04;97560.78;5062194;28;20021;-61
2022/02/20 08:00:18;;;;;;;3.28;1.52;;;;;;;3.78;78.95;97592.56;5060641;28;20091;-61
2022/02/20 08:02:45;;;;;;;1.70;1.60;;;;;;;3.69;80.69;97587.69;5061787;28;20028;-60
2022/02/20 08:05:11;;;;;;;2.13;1.70;;;;;;;3.68;81.42;97583.44;5061659;28;20214;-60
2022/02/20 08:07:37;;;;;;;1.40;1.30;;;;;;;3.89;81.11;97600.78;5053661;28;20048;-61
2022/02/20 08:10:04;;;;;;;2.50;1.40;;;;;;;3.78;81.56;97610.47;5060547;28;20025;-61
2022/02/20 08:12:30;;;;;;;1.33;1.23;;;;;;;3.67;81.70;97620.19;5061621;28;20047;-61
2022/02/20 08:14:56;;;;;;;2.28;1.50;;;;;;;3.34;81.91;97607.41;5060803;28;20025;-61
2022/02/20 08:17:25;;;;;;;0.95;0.95;;;;;;;3.19;82.62;97603.50;5061587;28;20078;-61
2022/02/20 08:19:51;;;;;;;1.40;1.25;;;;;;;3.40;83.88;97643.06;5061548;28;20035;-59
2022/02/20 08:22:17;;;;;;;1.45;1.20;;;;;;;3.18;84.35;97643.59;5059098;28;20033;-59
2022/02/20 08:24:43;;;;;;;1.67;1.42;;;;;;;2.99;84.37;97643.19;5050073;28;20029;-62
2022/02/20 08:27:13;;;;;;;1.20;1.10;;;;;;;2.88;85.80;97684.38;5053033;28;20224;-60
2022/02/20 08:29:39;;;;;;;1.75;1.42;;;;;;;2.91;85.31;97675.78;5051578;28;20017;-60
2022/02/20 08:32:06;;;;;;;1.30;1.20;;;;;;;3.13;85.70;97671.00;5032744;28;20032;-60
2022/02/20 08:34:33;;;;;;;1.88;1.70;;;;;;;3.79;83.50;97679.56;5055460;28;20242;-60
2022/02/20 08:37:00;;;;;;;2.85;1.50;;;;;;;3.95;81.67;97690.22;5054831;28;20255;-58
2022/02/20 08:39:27;;;;;;;1.95;1.60;;;;;;;3.91;80.72;97685.22;5060545;28;20024;-59
2022/02/20 08:41:53;;;;;;;2.47;1.40;;;;;;;3.89;81.26;97689.53;5061422;28;20115;-60
2022/02/20 08:44:18;;;;;;;3.75;1.85;;;;;;;3.78;80.75;97689.84;5057981;28;20021;-61
2022/02/20 08:46:44;;;;;;;3.40;1.48;;;;;;;3.53;80.74;97710.09;5061267;28;20248;-60
2022/02/20 08:49:09;;;;;;;1.55;1.40;;;;;;;3.42;82.25;97729.13;5060948;28;20032;-63
2022/02/20 08:51:35;;;;;;;1.30;1.20;;;;;;;3.52;82.86;97724.63;5061126;28;20059;-60
2022/02/20 08:54:00;;;;;;;0.85;0.85;;;;;;;3.65;81.16;97724.31;5060352;28;20056;-60
2022/02/20 08:56:26;;;;;;;0.95;0.90;;;;;;;3.89;80.91;97733.94;5059267;28;20025;-61
2022/02/20 08:58:55;;;;;;;1.25;1.00;;;;;;;3.95;79.54;97727.81;5052191;28;20045;-59
2022/02/20 09:01:23;;;;;;;1.65;1.20;;;;;;;3.59;78.65;97730.41;5059903;28;20111;-61
2022/02/20 09:03:49;;;;;;;1.15;1.05;;;;;;;3.70;79.23;97737.84;5064151;28;20056;-59
2022/02/20 09:06:14;;;;;;;1.45;1.15;;;;;;;3.83;78.03;97738.34;5064891;28;20029;-60
2022/02/20 09:08:40;;;;;;;1.98;1.60;;;;;;;3.89;78.69;97746.72;5057652;28;20039;-59
2022/02/20 09:11:06;;;;;;;2.50;1.45;;;;;;;3.71;77.05;97753.16;5064868;28;20025;-59
2022/02/20 09:13:32;;;;;;;3.30;1.23;;;;;;;3.52;76.75;97765.56;5065151;28;20073;-60
2022/02/20 09:15:57;;;;;;;2.80;1.48;;;;;;;3.29;78.96;97778.88;5065074;28;20217;-60
2022/02/20 09:18:23;;;;;;;2.15;1.13;;;;;;;2.85;78.25;97784.13;5063941;28;20017;-58
2022/02/20 09:20:48;;;;;;;1.45;0.98;;;;;;;2.82;80.17;97785.91;5060218;28;20341;-59
2022/02/20 09:23:14;;;;;;;2.05;1.50;;;;;;;3.16;77.75;97786.00;5064993;28;20029;-60
2022/02/20 09:25:41;;;;;;;1.23;1.10;;;;;;;3.30;76.28;97803.59;5064876;28;20044;-60
2022/02/20 09:28:07;;;;;;;1.70;1.30;;;;;;;3.75;74.13;97769.28;5065089;28;20100;-62
2022/02/20 09:30:33;;;;;;;1.67;1.40;;;;;;;4.90;71.24;97801.16;5064620;28;20036;-61
2022/02/20 09:32:58;;;;;;;1.25;1.15;;;;;;;4.51;67.16;97798.88;5063669;28;20025;-60
2022/02/20 09:35:25;;;;;;;2.05;1.50;;;;;;;3.94;66.96;97803.78;5064515;28;20317;-60
2022/02/20 09:37:51;;;;;;;3.05;1.63;;;;;;;3.91;66.86;97814.09;5064310;28;20029;-61
2022/02/20 09:40:17;;;;;;;1.45;1.35;;;;;;;3.87;67.51;97825.28;5064804;28;20043;-60
2022/02/20 09:42:43;;;;;;;1.52;1.30;;;;;;;3.73;66.79;97817.94;5064584;28;20028;-61
2022/02/20 09:45:09;;;;;;;2.67;1.50;;;;;;;3.66;65.83;97828.38;5063532;28;20059;-61
2022/02/20 09:47:39;;;;;;;4.47;1.48;;;;;;;3.82;65.87;97828.84;5064559;28;20024;-60
2022/02/20 09:50:06;;;;;;;2.65;1.52;;;;;;;3.60;64.81;97796.91;5064418;28;20029;-60
2022/02/20 09:52:31;;;;;;;1.70;1.50;;;;;;;3.79;65.77;97845.09;5064353;28;20036;-60
2022/02/20 09:54:57;;;;;;;1.58;1.35;;;;;;;3.78;65.04;97843.44;5064336;28;20383;-60
2022/02/20 09:57:22;;;;;;;1.67;1.58;;;;;;;3.75;63.92;97849.47;5062745;28;20385;-61
2022/02/20 09:59:48;;;;;;;2.03;1.42;;;;;;;3.81;65.30;97851.06;5063860;28;20285;-61
2022/02/20 10:02:16;;;;;;;1.83;1.50;;;;;;;3.62;65.84;97796.91;5063704;28;20195;-61
2022/02/20 10:04:43;;;;;;;1.80;1.50;;;;;;;3.67;64.06;97789.09;5063280;28;20090;-62
2022/02/20 10:07:39;;;;;;;1.45;1.35;;;;;;;4.07;65.48;97864.94;5063831;28;20049;-61
2022/02/20 10:10:17;;;;;;;2.00;1.33;;;;;;;4.06;63.08;97871.78;5050752;28;20041;-61
2022/02/20 10:12:43;;;;;;;2.40;1.60;;;;;;;3.83;63.22;97863.81;5060868;28;20029;-61
2022/02/20 10:15:28;;;;;;;1.98;1.48;;;;;;;3.74;61.35;97872.56;5062080;28;20052;-61
2022/02/20 10:17:58;;;;;;;1.50;1.40;;;;;;;3.73;62.99;97881.94;5063896;28;20545;-59
2022/02/20 10:20:24;;;;;;;1.55;1.45;;;;;;;3.93;63.78;97888.31;5063436;28;20048;-60
2022/02/20 10:22:50;;;;;;;2.25;1.23;;;;;;;3.91;63.54;97901.16;5064106;28;20024;-60
2022/02/20 10:25:16;;;;;;;2.20;1.20;;;;;;;3.81;61.23;97904.81;5063896;28;20337;-60
2022/02/20 10:27:54;;;;;;;3.22;1.65;;;;;;;3.97;62.29;97895.88;5063491;28;20021;-61
2022/02/20 10:30:30;;;;;;;2.03;1.38;;;;;;;3.91;60.81;97908.84;5062245;28;20088;-61
2022/02/20 10:33:06;;;;;;;1.20;1.10;;;;;;;3.58;61.77;97839.63;5063557;28;20033;-63
2022/02/20 10:35:34;;;;;;;1.60;1.40;;;;;;;3.80;60.83;97934.72;5063460;28;20025;-61
2022/02/20 10:38:06;;;;;;;2.58;1.40;;;;;;;3.96;60.77;97917.25;5063363;28;20025;-61
2022/02/20 10:40:31;;;;;;;;;;;;;;;3.98;61.10;97923.19;5062603;28;20214;-61
2022/02/20 10:43:02;;;;;;;1.08;1.02;;;;;;;3.91;61.59;97923.38;5063504;28;19909;-59
2022/02/20 10:45:29;;;;;;;1.20;1.10;;;;;;;3.74;59.87;97936.56;5063443;28;20108;-60
2022/02/20 10:47:56;;;;;;;1.75;1.20;;;;;;;3.92;60.61;97936.13;5063301;28;20214;-60
2022/02/20 10:50:27;;;;;;;1.20;1.10;;;;;;;3.84;61.37;97935.47;5062244;28;20321;-60
2022/02/20 10:53:18;;;;;;;1.40;1.30;;;;;;;3.86;59.69;97948.22;5062712;28;20096;-62
2022/02/20 10:55:45;;;;;;;1.67;1.10;;;;;;;3.37;59.85;97897.25;5062556;28;20225;-61
2022/02/20 10:58:15;;;;;;;1.55;1.10;;;;;;;3.85;59.32;97967.03;5058764;28;20326;-61
2022/02/20 11:01:18;;;;;;;1.23;1.10;;;;;;;3.75;59.19;97974.91;5060862;28;20044;-62
2022/02/20 11:03:43;;;;;;;1.17;1.00;;;;;;;3.44;58.80;97973.00;5052666;28;20033;-63
2022/02/20 11:06:09;;;;;;;1.63;1.10;;;;;;;3.55;59.44;97979.59;5062940;28;20280;-63
2022/02/20 11:08:35;;;;;;;1.20;1.10;;;;;;;3.69;60.52;97980.19;5053082;28;20383;-62
2022/02/20 11:11:36;;;;;;;2.10;1.50;;;;;;;3.48;60.18;97943.09;5061069;28;20382;-62
2022/02/20 11:13:49;;;;;;;2.05;1.27;;;;;;;3.76;60.42;97998.78;5061425;28;20024;-61
2022/02/20 11:16:15;;;;;;;0.93;0.90;;;;;;;3.61;58.85;98000.81;5062062;28;20421;-63
2022/02/20 11:18:42;;;;;;;1.40;1.30;;;;;;;3.60;59.98;97999.09;5062310;28;20032;-63
2022/02/20 11:21:09;;;;;;;1.60;1.08;;;;;;;3.65;60.46;98005.84;5062140;28;20028;-64
2022/02/20 11:23:34;;;;;;;2.25;1.40;;;;;;;3.73;60.41;98011.66;5061983;28;20028;-62
2022/02/20 11:26:04;;;;;;;1.35;1.10;;;;;;;3.58;59.85;98003.44;5057293;28;20021;-63
2022/02/20 11:28:32;;;;;;;1.30;1.20;;;;;;;3.60;59.89;98019.59;5062549;28;20041;-61
2022/02/20 11:30:58;;;;;;;1.20;1.08;;;;;;;3.49;58.95;98031.75;5052419;28;20033;-63
2022/02/20 11:33:25;;;;;;;1.33;1.17;;;;;;;3.07;59.83;97975.44;5054314;28;20045;-60
2022/02/20 11:35:52;;;;;;;1.23;1.08;;;;;;;3.35;58.96;98038.84;5056336;28;20104;-62
2022/02/20 11:38:20;;;;;;;1.48;1.05;;;;;;;3.06;59.28;97989.09;5064127;28;20033;-62